createdAt,value
2023-02-11T00:01:42.476Z,-4.62
2023-02-11T00:04:11.524Z,-4.64
2023-02-11T00:06:40.435Z,-4.68
2023-02-11T00:09:09.356Z,-4.72
2023-02-11T00:11:40.482Z,-4.67
2023-02-11T00:14:09.457Z,-4.63
2023-02-11T00:16:38.279Z,-4.62
2023-02-11T00:19:07.687Z,-4.64
2023-02-11T00:21:36.780Z,-4.63
2023-02-11T00:24:05.883Z,-4.60
2023-02-11T00:26:37.020Z,-4.60
2023-02-11T00:29:07.444Z,-4.56
2023-02-11T00:31:36.538Z,-4.57
2023-02-11T00:34:07.457Z,-4.57
2023-02-11T00:36:36.188Z,-4.58
2023-02-11T00:39:05.815Z,-4.61
2023-02-11T00:41:36.613Z,-4.66
2023-02-11T00:44:07.044Z,-4.75
2023-02-11T00:46:35.945Z,-4.69
2023-02-11T00:49:04.575Z,-4.66
2023-02-11T00:51:33.408Z,-4.69
2023-02-11T00:54:02.189Z,-4.71
2023-02-11T00:56:31.019Z,-4.75
2023-02-11T00:58:59.868Z,-4.72
2023-02-11T01:01:30.158Z,-4.75
2023-02-11T01:03:59.022Z,-4.76
2023-02-11T01:06:27.661Z,-4.63
2023-02-11T01:08:56.592Z,-4.57
2023-02-11T01:11:25.326Z,-4.53
2023-02-11T01:13:54.152Z,-4.55
2023-02-11T01:16:24.861Z,-4.70
2023-02-11T01:18:56.848Z,-4.75
2023-02-11T01:21:26.152Z,-4.75
2023-02-11T01:23:54.909Z,-4.82
2023-02-11T01:26:23.758Z,-4.80
2023-02-11T01:28:52.638Z,-4.83
2023-02-11T01:31:21.543Z,-4.83
2023-02-11T01:33:50.484Z,-4.83
2023-02-11T01:36:20.782Z,-4.77
2023-02-11T01:38:50.141Z,-4.75
2023-02-11T01:41:22.798Z,-4.78
2023-02-11T01:43:52.281Z,-4.86
2023-02-11T01:46:36.459Z,-4.85
2023-02-11T01:49:09.183Z,-4.83
2023-02-11T01:51:43.588Z,-4.85
2023-02-11T01:54:26.350Z,-4.92
2023-02-11T01:57:08.655Z,-4.92
2023-02-11T01:59:46.285Z,-4.91
2023-02-11T02:02:19.091Z,-5.00
2023-02-11T02:04:54.430Z,-5.04
2023-02-11T02:07:34.761Z,-5.03
2023-02-11T02:10:08.273Z,-4.98
2023-02-11T02:12:38.660Z,-5.01
2023-02-11T02:15:21.301Z,-5.07
2023-02-11T02:17:59.947Z,-5.07
2023-02-11T02:21:03.286Z,-5.09
2023-02-11T02:23:49.949Z,-5.01
2023-02-11T02:26:44.187Z,-4.95
2023-02-11T02:29:44.357Z,-4.95
2023-02-11T02:32:31.764Z,-4.92
2023-02-11T02:35:07.394Z,-4.92
2023-02-11T02:37:42.025Z,-4.90
2023-02-11T02:40:15.583Z,-4.89
2023-02-11T02:42:45.954Z,-4.91
2023-02-11T02:45:15.990Z,-4.89
2023-02-11T02:47:46.142Z,-4.94
2023-02-11T02:50:19.880Z,-4.96
2023-02-11T02:53:01.899Z,-5.01
2023-02-11T02:55:44.390Z,-5.07
2023-02-11T02:58:38.050Z,-5.10
2023-02-11T03:01:17.008Z,-5.12
2023-02-11T03:03:54.420Z,-5.13
2023-02-11T03:06:31.437Z,-5.12
2023-02-11T03:09:09.008Z,-5.06
2023-02-11T03:11:39.894Z,-5.03
2023-02-11T03:14:13.928Z,-5.02
2023-02-11T03:16:45.129Z,-5.13
2023-02-11T03:19:20.263Z,-5.16
2023-02-11T03:21:53.477Z,-5.16
2023-02-11T03:24:27.707Z,-5.17
2023-02-11T03:27:00.461Z,-5.23
2023-02-11T03:29:36.970Z,-5.28
2023-02-11T03:32:16.559Z,-5.45
2023-02-11T03:34:51.853Z,-5.47
2023-02-11T03:37:25.231Z,-5.63
2023-02-11T03:39:58.434Z,-5.47
2023-02-11T03:42:34.892Z,-5.55
2023-02-11T03:45:09.728Z,-5.54
2023-02-11T03:47:41.391Z,-5.57
2023-02-11T03:50:16.414Z,-5.47
2023-02-11T03:52:46.876Z,-5.44
2023-02-11T03:55:19.587Z,-5.40
2023-02-11T03:57:49.439Z,-5.47
2023-02-11T04:00:18.368Z,-5.47
2023-02-11T04:02:47.402Z,-5.49
2023-02-11T04:05:18.091Z,-5.48
2023-02-11T04:07:46.921Z,-5.53
2023-02-11T04:10:16.086Z,-5.59
2023-02-11T04:12:45.110Z,-5.59
2023-02-11T04:15:13.881Z,-5.64
2023-02-11T04:17:43.240Z,-5.66
2023-02-11T04:20:13.254Z,-5.67
2023-02-11T04:22:43.479Z,-5.66
2023-02-11T04:25:12.414Z,-5.65
2023-02-11T04:27:41.262Z,-5.71
2023-02-11T04:30:14.002Z,-5.71
2023-02-11T04:32:42.821Z,-5.75
2023-02-11T04:35:11.443Z,-5.74
2023-02-11T04:37:40.205Z,-5.70
2023-02-11T04:40:11.922Z,-5.71
2023-02-11T04:42:40.759Z,-5.66
2023-02-11T04:45:10.272Z,-5.61
2023-02-11T04:47:39.013Z,-5.51
2023-02-11T04:50:08.131Z,-5.48
2023-02-11T04:52:36.907Z,-5.47
2023-02-11T04:55:06.034Z,-5.46
2023-02-11T04:57:36.535Z,-5.42
2023-02-11T05:00:06.167Z,-5.45
2023-02-11T05:02:34.625Z,-5.44
2023-02-11T05:05:03.617Z,-5.46
2023-02-11T05:07:32.580Z,-5.44
2023-02-11T05:10:01.386Z,-5.33
2023-02-11T05:12:30.090Z,-5.26
2023-02-11T05:15:00.429Z,-5.30
2023-02-11T05:17:29.162Z,-5.30
2023-02-11T05:19:57.888Z,-5.19
2023-02-11T05:22:26.738Z,-5.16
2023-02-11T05:24:55.537Z,-5.10
2023-02-11T05:27:24.391Z,-5.10
2023-02-11T05:29:53.138Z,-5.07
2023-02-11T05:32:23.404Z,-5.10
2023-02-11T05:34:52.612Z,-5.11
2023-02-11T05:37:21.351Z,-5.04
2023-02-11T05:39:50.178Z,-5.05
2023-02-11T05:42:18.963Z,-5.05
2023-02-11T05:44:50.479Z,-5.04
2023-02-11T05:47:19.654Z,-5.07
2023-02-11T05:49:49.805Z,-5.05
2023-02-11T05:52:18.584Z,-4.98
2023-02-11T05:54:47.288Z,-4.97
2023-02-11T05:57:16.418Z,-4.94
2023-02-11T05:59:45.353Z,-4.84
2023-02-11T06:02:14.680Z,-4.80
2023-02-11T06:04:44.574Z,-4.77
2023-02-11T06:07:14.839Z,-4.75
2023-02-11T06:09:43.860Z,-4.72
2023-02-11T06:12:12.633Z,-4.69
2023-02-11T06:14:41.895Z,-4.68
2023-02-11T06:17:10.680Z,-4.73
2023-02-11T06:19:39.660Z,-4.75
2023-02-11T06:22:08.373Z,-4.74
2023-02-11T06:24:59.761Z,-4.78
2023-02-11T06:27:27.687Z,-4.89
2023-02-11T06:29:56.640Z,-4.97
2023-02-11T06:32:42.656Z,-4.92
2023-02-11T06:35:13.006Z,-4.87
2023-02-11T06:37:41.881Z,-5.03
2023-02-11T06:40:13.321Z,-5.05
2023-02-11T06:42:42.628Z,-5.05
2023-02-11T06:45:13.587Z,-4.87
2023-02-11T06:47:43.065Z,-4.85
2023-02-11T06:50:15.133Z,-4.86
2023-02-11T06:52:43.882Z,-4.83
2023-02-11T06:55:14.013Z,-4.72
2023-02-11T06:57:42.862Z,-4.59
2023-02-11T07:00:12.894Z,-4.46
2023-02-11T07:02:41.697Z,-4.36
2023-02-11T07:05:10.908Z,-4.34
2023-02-11T07:07:39.743Z,-4.24
2023-02-11T07:10:08.873Z,-4.18
2023-02-11T07:12:39.161Z,-4.11
2023-02-11T07:15:08.510Z,-4.03
2023-02-11T07:17:37.343Z,-4.03
2023-02-11T07:20:06.752Z,-4.20
2023-02-11T07:22:36.003Z,-4.11
2023-02-11T07:25:05.674Z,-4.07
2023-02-11T07:27:34.093Z,-3.98
2023-02-11T07:30:06.987Z,-3.80
2023-02-11T07:32:36.595Z,-3.69
2023-02-11T07:35:06.295Z,-3.67
2023-02-11T07:37:35.386Z,-3.55
2023-02-11T07:40:05.350Z,-3.54
2023-02-11T07:42:35.620Z,-3.51
2023-02-11T07:45:06.477Z,-3.40
2023-02-11T07:47:36.150Z,-3.27
2023-02-11T07:50:04.611Z,-3.20
2023-02-11T07:52:33.785Z,-3.15
2023-02-11T07:55:04.853Z,-3.17
2023-02-11T07:57:33.918Z,-3.12
2023-02-11T08:00:02.603Z,-3.19
2023-02-11T08:02:40.861Z,-2.96
2023-02-11T08:05:09.950Z,-2.88
2023-02-11T08:07:38.622Z,-2.88
2023-02-11T08:10:07.973Z,-2.96
2023-02-11T08:12:36.691Z,-2.85
2023-02-11T08:15:05.980Z,-2.75
2023-02-11T08:17:36.699Z,-2.78
2023-02-11T08:20:08.477Z,-2.79
2023-02-11T08:22:37.319Z,-2.67
2023-02-11T08:25:06.604Z,-2.48
2023-02-11T08:27:35.841Z,-2.37
2023-02-11T08:30:04.668Z,-2.25
2023-02-11T08:32:35.598Z,-2.23
2023-02-11T08:35:04.220Z,-2.14
2023-02-11T08:37:34.566Z,-2.06
2023-02-11T08:40:03.333Z,-2.03
2023-02-11T08:42:31.977Z,-2.09
2023-02-11T08:45:01.262Z,-2.12
2023-02-11T08:47:30.021Z,-2.04
2023-02-11T08:49:58.927Z,-1.96
2023-02-11T08:52:27.701Z,-1.89
2023-02-11T08:54:58.020Z,-1.86
2023-02-11T08:57:28.023Z,-1.88
2023-02-11T08:59:57.282Z,-1.80
2023-02-11T09:02:26.841Z,-1.66
2023-02-11T09:04:56.165Z,-1.63
2023-02-11T09:07:24.907Z,-1.57
2023-02-11T09:09:53.669Z,-1.58
2023-02-11T09:12:23.767Z,-1.54
2023-02-11T09:14:53.562Z,-1.48
2023-02-11T09:17:22.362Z,-1.42
2023-02-11T09:19:51.015Z,-1.38
2023-02-11T09:22:20.059Z,-1.33
2023-02-11T09:24:48.817Z,-1.28
2023-02-11T09:27:17.479Z,-1.24
2023-02-11T09:29:47.688Z,-1.21
2023-02-11T09:32:16.525Z,-1.17
2023-02-11T09:34:45.302Z,-1.11
2023-02-11T09:37:14.114Z,-1.05
2023-02-11T09:39:42.860Z,-0.95
2023-02-11T09:42:36.328Z,-0.84
2023-02-11T09:45:16.115Z,-0.74
2023-02-11T09:47:51.109Z,-0.64
2023-02-11T09:50:25.106Z,-0.58
2023-02-11T09:52:59.659Z,-0.51
2023-02-11T09:55:31.726Z,-0.54
2023-02-11T09:58:01.329Z,-0.51
2023-02-11T10:00:34.870Z,-0.53
2023-02-11T10:03:24.297Z,-0.64
2023-02-11T10:06:09.862Z,-0.66
2023-02-11T10:08:47.107Z,-0.63
2023-02-11T10:11:31.519Z,-0.57
2023-02-11T10:14:15.169Z,-0.58
2023-02-11T10:17:00.720Z,-0.57
2023-02-11T10:19:44.560Z,-0.59
2023-02-11T10:22:21.013Z,-0.49
2023-02-11T10:24:55.659Z,-0.44
2023-02-11T10:27:32.370Z,-0.41
2023-02-11T10:30:08.369Z,-0.25
2023-02-11T10:32:46.452Z,-0.05
2023-02-11T10:35:18.566Z,0.19
2023-02-11T10:37:47.270Z,0.31
2023-02-11T10:40:18.293Z,0.47
2023-02-11T10:42:51.550Z,0.71
2023-02-11T10:45:29.138Z,1.22
2023-02-11T10:48:00.408Z,1.39
2023-02-11T10:50:33.989Z,1.43
2023-02-11T10:53:21.226Z,1.51
2023-02-11T10:55:55.064Z,1.74
2023-02-11T10:58:27.835Z,1.74
2023-02-11T11:01:00.025Z,1.73
2023-02-11T11:03:35.686Z,1.64
2023-02-11T11:06:07.293Z,1.83
2023-02-11T11:08:43.331Z,2.14
2023-02-11T11:11:14.468Z,2.27
2023-02-11T11:13:56.536Z,2.45
2023-02-11T11:16:28.154Z,2.52
2023-02-11T11:19:22.001Z,2.72
2023-02-11T11:21:53.272Z,2.93
2023-02-11T11:24:30.757Z,3.13
2023-02-11T11:27:02.286Z,3.01
2023-02-11T11:29:36.459Z,3.23
2023-02-11T11:32:08.239Z,3.46
2023-02-11T11:34:40.765Z,3.38
2023-02-11T11:37:14.140Z,3.24
2023-02-11T11:39:43.174Z,3.46
2023-02-11T11:42:28.081Z,3.60
2023-02-11T11:45:02.692Z,3.54
2023-02-11T11:47:41.900Z,3.47
2023-02-11T11:50:28.041Z,3.64
2023-02-11T11:53:05.338Z,3.79
2023-02-11T11:55:40.240Z,3.69
2023-02-11T11:58:14.739Z,3.54
2023-02-11T12:00:53.422Z,3.54
2023-02-11T12:03:45.186Z,3.53
2023-02-11T12:06:27.166Z,3.60
2023-02-11T12:09:10.046Z,3.89
2023-02-11T12:11:58.119Z,3.90
2023-02-11T12:14:35.270Z,3.97
2023-02-11T12:17:13.116Z,3.86
2023-02-11T12:20:10.477Z,3.87
2023-02-11T12:22:54.024Z,4.04
2023-02-11T12:25:29.189Z,3.92
2023-02-11T12:28:15.613Z,3.90
2023-02-11T12:31:07.059Z,4.05
2023-02-11T12:33:57.571Z,4.15
2023-02-11T12:36:47.659Z,4.04
2023-02-11T12:39:31.890Z,3.92
2023-02-11T12:42:28.768Z,3.86
2023-02-11T12:45:16.371Z,3.83
2023-02-11T12:48:02.839Z,3.85
2023-02-11T12:50:43.730Z,3.78
2023-02-11T12:53:40.828Z,3.72
2023-02-11T12:56:19.311Z,3.72
2023-02-11T12:58:52.009Z,3.75
2023-02-11T13:01:25.277Z,3.84
2023-02-11T13:03:58.991Z,3.91
2023-02-11T13:06:34.755Z,3.98
2023-02-11T13:09:06.181Z,4.03
2023-02-11T13:11:40.245Z,4.00
2023-02-11T13:14:16.655Z,3.94
2023-02-11T13:16:47.855Z,3.91
2023-02-11T13:19:22.985Z,3.90
2023-02-11T13:22:06.938Z,3.87
2023-02-11T13:24:45.207Z,3.79
2023-02-11T13:27:31.330Z,3.75
2023-02-11T13:30:28.734Z,3.68
2023-02-11T13:33:18.450Z,3.63
2023-02-11T13:35:49.674Z,3.61
2023-02-11T13:38:24.094Z,3.60
2023-02-11T13:41:05.132Z,3.61
2023-02-11T13:43:37.197Z,3.58
2023-02-11T13:46:10.409Z,3.57
2023-02-11T13:48:41.627Z,3.55
2023-02-11T13:51:14.430Z,3.53
2023-02-11T13:53:48.766Z,3.54
2023-02-11T13:56:30.520Z,3.53
2023-02-11T13:59:02.676Z,3.51
2023-02-11T14:02:13.243Z,3.55
2023-02-11T14:05:14.410Z,3.61
2023-02-11T14:08:24.055Z,3.65
2023-02-11T14:10:54.115Z,3.71
2023-02-11T14:13:26.653Z,3.78
2023-02-11T14:16:09.469Z,3.84
2023-02-11T14:18:39.871Z,3.88
2023-02-11T14:21:15.408Z,3.88
2023-02-11T14:23:45.346Z,3.87
2023-02-11T14:26:36.662Z,3.88
2023-02-11T14:29:14.666Z,3.86
2023-02-11T14:31:50.626Z,3.84
2023-02-11T14:34:35.274Z,3.87
2023-02-11T14:37:23.278Z,3.93
2023-02-11T14:40:10.754Z,3.89
2023-02-11T14:42:40.166Z,3.86
2023-02-11T14:45:12.904Z,3.87
2023-02-11T14:47:50.408Z,3.83
2023-02-11T14:50:25.874Z,3.86
2023-02-11T14:52:56.285Z,3.84
2023-02-11T14:55:34.069Z,3.86
2023-02-11T14:58:15.257Z,3.88
2023-02-11T15:00:53.544Z,3.91
2023-02-11T15:03:35.907Z,3.90
2023-02-11T15:06:08.992Z,3.88
2023-02-11T15:08:43.759Z,3.86
2023-02-11T15:11:15.498Z,3.86
2023-02-11T15:13:48.182Z,3.84
2023-02-11T15:16:20.179Z,3.86
2023-02-11T15:18:53.813Z,3.78
2023-02-11T15:21:24.270Z,3.71
2023-02-11T15:24:02.379Z,3.66
2023-02-11T15:26:32.175Z,3.68
2023-02-11T15:29:01.646Z,3.67
2023-02-11T15:31:32.573Z,3.67
2023-02-11T15:34:10.578Z,3.67
2023-02-11T15:36:39.885Z,3.62
2023-02-11T15:39:33.432Z,3.58
2023-02-11T15:42:20.281Z,3.52
2023-02-11T15:44:56.300Z,3.49
2023-02-11T15:47:26.091Z,3.44
2023-02-11T15:49:56.526Z,3.34
2023-02-11T15:52:29.661Z,3.29
2023-02-11T15:55:02.531Z,3.21
2023-02-11T15:57:31.747Z,3.10
2023-02-11T16:00:04.803Z,2.99
2023-02-11T16:02:45.510Z,2.94
2023-02-11T16:05:30.931Z,2.92
2023-02-11T16:08:00.841Z,2.87
2023-02-11T16:10:30.220Z,2.80
2023-02-11T16:13:20.929Z,2.75
2023-02-11T16:15:55.712Z,2.72
2023-02-11T16:18:38.823Z,2.72
2023-02-11T16:21:18.058Z,2.70
2023-02-11T16:23:54.338Z,2.68
2023-02-11T16:26:28.926Z,2.67
2023-02-11T16:29:07.093Z,2.65
2023-02-11T16:31:38.213Z,2.64
2023-02-11T16:34:15.002Z,2.62
2023-02-11T16:36:45.558Z,2.63
2023-02-11T16:39:14.674Z,2.61
2023-02-11T16:41:43.376Z,2.58
2023-02-11T16:44:12.178Z,2.52
2023-02-11T16:46:41.008Z,2.54
2023-02-11T16:49:13.207Z,2.49
2023-02-11T16:51:42.813Z,2.44
2023-02-11T16:54:15.357Z,2.44
2023-02-11T16:56:44.758Z,2.43
2023-02-11T16:59:13.897Z,2.43
2023-02-11T17:01:44.587Z,2.35
2023-02-11T17:04:25.211Z,2.32
2023-02-11T17:06:55.999Z,2.34
2023-02-11T17:09:31.087Z,2.32
2023-02-11T17:12:00.429Z,2.34
2023-02-11T17:14:29.124Z,2.30
2023-02-11T17:16:57.977Z,2.27
2023-02-11T17:19:26.604Z,2.22
2023-02-11T17:21:55.334Z,2.25
2023-02-11T17:24:24.743Z,2.23
2023-02-11T17:26:55.060Z,2.25
2023-02-11T17:29:28.781Z,2.26
2023-02-11T17:31:57.683Z,2.22
2023-02-11T17:34:26.375Z,2.07
2023-02-11T17:36:55.243Z,2.21
2023-02-11T17:39:24.385Z,2.19
2023-02-11T17:41:54.616Z,2.21
2023-02-11T17:44:23.413Z,2.20
2023-02-11T17:46:52.186Z,2.20
2023-02-11T17:49:21.044Z,2.20
2023-02-11T17:51:49.679Z,2.19
2023-02-11T17:54:20.924Z,2.18
2023-02-11T17:56:50.964Z,2.16
2023-02-11T17:59:22.606Z,2.18
2023-02-11T18:01:51.376Z,2.16
2023-02-11T18:04:21.192Z,2.17
2023-02-11T18:06:50.496Z,2.19
2023-02-11T18:09:19.177Z,2.16
2023-02-11T18:11:48.614Z,2.13
2023-02-11T18:14:17.387Z,2.13
2023-02-11T18:16:47.725Z,2.13
2023-02-11T18:19:16.490Z,2.10
2023-02-11T18:21:45.322Z,2.09
2023-02-11T18:24:14.103Z,2.12
2023-02-11T18:26:42.760Z,2.14
2023-02-11T18:29:11.614Z,2.15
2023-02-11T18:31:40.708Z,2.13
2023-02-11T18:34:12.204Z,2.12
2023-02-11T18:36:41.072Z,2.10
2023-02-11T18:39:09.838Z,2.12
2023-02-11T18:41:42.497Z,2.12
2023-02-11T18:44:14.473Z,2.14
2023-02-11T18:46:43.315Z,2.14
2023-02-11T18:49:13.517Z,2.14
2023-02-11T18:51:42.678Z,2.16
2023-02-11T18:54:11.396Z,2.12
2023-02-11T18:56:40.297Z,2.15
2023-02-11T18:59:08.943Z,2.12
2023-02-11T19:01:40.766Z,2.10
2023-02-11T19:04:09.655Z,2.09
2023-02-11T19:06:40.207Z,2.08
2023-02-11T19:09:12.008Z,2.09
2023-02-11T19:11:51.375Z,2.07
2023-02-11T19:14:23.840Z,2.02
2023-02-11T19:16:54.635Z,2.01
2023-02-11T19:19:25.946Z,2.04
2023-02-11T19:21:56.965Z,2.01
2023-02-11T19:24:26.433Z,2.02
2023-02-11T19:26:58.363Z,2.06
2023-02-11T19:29:27.333Z,2.05
2023-02-11T19:31:56.170Z,2.04
2023-02-11T19:34:25.059Z,2.03
2023-02-11T19:36:55.499Z,2.03
2023-02-11T19:39:26.026Z,2.05
2023-02-11T19:41:55.225Z,2.04
2023-02-11T19:44:23.978Z,2.07
2023-02-11T19:46:53.714Z,2.06
2023-02-11T19:49:26.388Z,1.99
2023-02-11T19:51:58.713Z,1.98
